Dakar, Senegal

10:12 AM GMT on July 13, 2014 (GMT +0000)
Ngor Almadies (IDAKARDA2) Elev 46 ft | 14.74 °N, 17.51 °W | Change Station

Current weather conditions updated 8 seconds ago

Clear
Clear
82.7 °F
Feels Like 90 °F
N
4.0
Wind Variable Wind from NW
Gusts 4.0 mph

Today is forecast to be Cooler than yesterday.

Today
High -- | Low -- °F
--% Chance of Precip.
Yesterday
High -- | Low -- °F
Precip. -- in
6:47 AM 7:43 PM
Full, 99% visible
Pressure 29.95 in
Visibility -9999.0 miles
Clouds
Heat Index 90 °F
Dew Point 76 °F
Humidity 79%
Rainfall 0.00 in
Snow Depth Not available.
UV Not available.
Pollen Not available.
Air Quality Not available.
Flu Activity Not available.
METAR GOOY 131000Z 29011KT 260V330 CAVOK 28/23 Q1014 NOSIG

More Conditions Fewer Conditions

Pressure 29.95 in
Visibility -9999.0 miles
Clouds
Heat Index 90 °F
Dew Point 76 °F
Humidity 79%
Rainfall 0.00 in
Snow Depth Not available.
UV Not available.
Pollen Not available.
Air Quality Not available.
Flu Activity Not available.
METAR GOOY 131000Z 29011KT 260V330 CAVOK 28/23 Q1014 NOSIG

More Conditions Fewer Conditions

10-Day Weather Forecast

Almanac

Astronomy

Jul. 13, 2014 Rise Set
Actual Time 6:47 AM GMT 7:43 PM GMT
Civil Twilight 6:24 AM GMT 8:06 PM GMT
Nautical Twilight 5:56 AM GMT 8:34 PM GMT
Astronomical Twilight 5:28 AM GMT 9:02 PM GMT
Moon 8:46 PM GMT 7:45 AM GMT
Length of Visible Light 13h 42m
Length of Day
12h 55m
Tomorrow will be 0m 23s shorter.
Full, 99% of the Moon is Illuminated
Today
Full
Jul 18
Last Quarter
Jul 26
New
Aug 3
First Quarter
Aug 10
Full

Yesterday's Extremes

Country Highs Country Lows

Community

WunderPhotos

Upload Photos

1,733,147 photos uploaded!

Nearby

Snow Depth

Not available.

Earthquake Activity

City Distance Mag. Time & Date
No recent earthquake activity has been reported nearby.
Minimum magnitude displayed is 2.5.

Coastal Water Temperatures

Place Temperature
No Stations Reporting

Nearby Weather Stations

Station Location Temp. Heat Index Dew Point Humidity Wind Precip. Elev Updated Type
Ngor Almadies, Dakar 82.7 °F 90 °F 76 °F 79% NW  at  4.0 mph 0.00 in / hr 46 ft 10:12 AM GMT Rapid Fire

Show More Stations Show Fewer Stations